Time;durP1;ratioP1;P1;durP2;ratioP2;P2;SDS_P1;SDS_P2;PMS_P1;PMS_P2;Temp;Humidity;BMP_temperature;BMP_pressure;BME280_temperature;BME280_humidity;BME280_pressure;Samples;Min_cycle;Max_cycle;Signal;HPM_P1;HPM_P2
2021/08/20 00:01:28;;;;;;;12.23;11.15;;;;;;;15.84;70.94;100338.58;128247;1095;24538;-77
2021/08/20 00:04:01;;;;;;;13.05;10.95;;;;;;;15.83;71.33;100337.77;128256;1095;23828;-76
2021/08/20 00:06:32;;;;;;;13.75;11.33;;;;;;;15.81;71.44;100338.98;128249;1095;22392;-76
2021/08/20 00:09:02;;;;;;;11.20;10.15;;;;;;;15.80;71.89;100340.83;128314;1095;22458;-76
2021/08/20 00:11:32;;;;;;;11.65;10.65;;;;;;;15.83;72.00;100342.25;128606;1095;22365;-76
2021/08/20 00:14:05;;;;;;;10.90;9.90;;;;;;;15.85;72.14;100335.70;128650;1095;24589;-76
2021/08/20 00:16:35;;;;;;;11.37;10.33;;;;;;;15.88;72.32;100340.63;128555;1095;22354;-77
2021/08/20 00:19:05;;;;;;;11.45;10.50;;;;;;;15.91;72.21;100342.89;128283;1095;22368;-77
2021/08/20 00:21:36;;;;;;;10.85;9.55;;;;;;;15.94;72.28;100345.15;128596;1095;22365;-76
2021/08/20 00:24:07;;;;;;;11.28;10.20;;;;;;;15.99;72.27;100345.38;128373;1095;22667;-75
2021/08/20 00:26:37;;;;;;;12.18;10.93;;;;;;;16.04;72.26;100343.94;128627;1095;22800;-75
2021/08/20 00:29:07;;;;;;;11.60;10.60;;;;;;;16.04;72.08;100341.27;128611;1095;22190;-76
2021/08/20 00:31:38;;;;;;;12.13;11.13;;;;;;;16.03;72.18;100342.27;128595;1095;22352;-76
2021/08/20 00:34:08;;;;;;;13.30;12.08;;;;;;;15.99;71.82;100339.20;128601;1095;24508;-75
2021/08/20 00:36:37;;;;;;;13.75;12.45;;;;;;;15.93;72.22;100340.85;128271;1098;23803;-75
2021/08/20 00:39:08;;;;;;;12.60;11.55;;;;;;;15.90;72.36;100351.91;128269;1097;24524;-76
2021/08/20 00:41:44;;;;;;;12.38;11.20;;;;;;;15.92;72.56;100347.18;128220;1098;22454;-75
2021/08/20 00:44:14;;;;;;;12.68;11.55;;;;;;;15.97;72.51;100350.07;128208;1098;22478;-75
2021/08/20 00:46:46;;;;;;;14.90;13.43;;;;;;;15.98;72.44;100349.04;128251;1098;22369;-76
2021/08/20 00:49:16;;;;;;;14.05;12.85;;;;;;;15.97;72.27;100347.41;128195;1098;22378;-76
2021/08/20 00:51:46;;;;;;;13.88;12.80;;;;;;;15.96;72.41;100345.78;128104;1098;22366;-76
2021/08/20 00:54:19;;;;;;;13.18;11.98;;;;;;;16.00;72.50;100347.00;128260;1095;22296;-76
2021/08/20 00:56:49;;;;;;;14.58;13.18;;;;;;;16.01;72.51;100342.49;128574;1093;22358;-76
2021/08/20 00:59:24;;;;;;;14.23;12.98;;;;;;;15.97;72.28;100347.41;128659;1095;23123;-77
2021/08/20 01:01:54;;;;;;;13.43;12.33;;;;;;;15.95;72.45;100349.44;128385;1095;23324;-76
2021/08/20 01:04:24;;;;;;;13.63;12.53;;;;;;;15.94;72.57;100341.67;128553;1095;22356;-75
2021/08/20 01:06:58;;;;;;;13.60;12.50;;;;;;;15.98;72.70;100346.38;128593;1095;22368;-76
2021/08/20 01:09:28;;;;;;;13.30;12.20;;;;;;;16.03;72.90;100343.13;128491;1095;22799;-75
2021/08/20 01:11:58;;;;;;;11.70;10.80;;;;;;;16.08;72.78;100350.48;128592;1095;22388;-76
2021/08/20 01:14:30;;;;;;;11.70;10.70;;;;;;;16.11;72.92;100345.57;128248;1098;23206;-75
2021/08/20 01:17:03;;;;;;;12.23;11.33;;;;;;;16.14;72.88;100344.35;128259;1097;22354;-76
2021/08/20 01:19:35;;;;;;;12.50;11.50;;;;;;;16.14;72.47;100347.02;128518;1097;22555;-77
2021/08/20 01:22:07;;;;;;;13.80;12.60;;;;;;;16.12;72.71;100354.38;128173;1098;22354;-77
2021/08/20 01:24:45;;;;;;;13.60;12.50;;;;;;;16.08;72.29;100353.16;128245;1098;23132;-77
2021/08/20 01:27:18;;;;;;;13.75;12.55;;;;;;;16.05;72.72;100353.56;128228;1096;22692;-77
2021/08/20 01:29:48;;;;;;;13.50;12.45;;;;;;;16.01;72.86;100358.48;128233;1098;22354;-76
2021/08/20 01:32:19;;;;;;;13.48;12.38;;;;;;;16.00;72.95;100356.84;128479;1095;22350;-75
2021/08/20 01:34:48;;;;;;;13.58;12.58;;;;;;;15.99;73.18;100364.02;128253;1095;22350;-76
2021/08/20 01:37:18;;;;;;;13.03;11.93;;;;;;;16.02;73.28;100359.30;128600;1095;22350;-76
2021/08/20 01:39:48;;;;;;;13.78;12.68;;;;;;;16.03;73.36;100361.77;128236;1098;24505;-76
2021/08/20 01:42:19;;;;;;;13.48;12.25;;;;;;;16.03;73.31;100353.78;127994;1098;22378;-76
2021/08/20 01:44:48;;;;;;;14.17;12.90;;;;;;;16.04;73.52;100362.59;127974;1098;22379;-76
2021/08/20 01:47:18;;;;;;;13.15;12.05;;;;;;;16.02;73.27;100353.97;127980;1098;23343;-76
2021/08/20 01:49:48;;;;;;;14.68;13.48;;;;;;;16.02;73.40;100356.63;127981;1098;22382;-76
2021/08/20 01:52:18;;;;;;;14.33;13.13;;;;;;;16.00;73.34;100357.66;127993;1098;22405;-76
2021/08/20 01:54:48;;;;;;;13.18;12.13;;;;;;;16.02;73.65;100354.78;127983;1098;22481;-76
2021/08/20 01:57:18;;;;;;;12.40;11.50;;;;;;;16.03;73.74;100355.59;128014;1098;22447;-76
2021/08/20 01:59:49;;;;;;;13.60;12.23;;;;;;;16.04;73.78;100357.26;128296;1095;22436;-75
2021/08/20 02:02:20;;;;;;;12.53;11.63;;;;;;;16.07;73.77;100354.19;128336;1095;22356;-76
2021/08/20 02:04:50;;;;;;;12.90;11.60;;;;;;;16.08;73.59;100358.48;128362;1094;23124;-76
2021/08/20 02:07:20;;;;;;;12.23;11.23;;;;;;;16.10;73.96;100351.94;128392;1095;22361;-76
2021/08/20 02:09:51;;;;;;;11.85;10.68;;;;;;;16.18;74.02;100366.90;128275;1098;22372;-76
2021/08/20 02:12:21;;;;;;;11.58;10.68;;;;;;;16.25;73.95;100357.05;128280;1098;24515;-76
2021/08/20 02:15:09;;;;;;;11.95;10.53;;;;;;;16.32;73.91;100351.72;127974;1101;22403;-76
2021/08/20 02:17:40;;;;;;;11.90;10.90;;;;;;;16.37;74.01;100359.94;127631;1102;22417;-76
2021/08/20 02:20:11;;;;;;;11.33;10.43;;;;;;;16.40;73.83;100347.02;127575;1101;24650;-76
2021/08/20 02:22:40;;;;;;;10.60;9.27;;;;;;;16.39;73.53;100336.55;127546;1101;22422;-76
2021/08/20 02:25:10;;;;;;;11.50;10.30;;;;;;;16.39;73.71;100336.55;127601;1101;23403;-77
2021/08/20 02:27:41;;;;;;;12.13;11.03;;;;;;;16.41;73.84;100340.65;127624;1101;22410;-76
2021/08/20 02:30:11;;;;;;;9.70;8.83;;;;;;;16.44;73.95;100337.58;127595;1101;22419;-75
2021/08/20 02:32:47;;;;;;;9.28;8.48;;;;;;;16.50;73.71;100332.45;127688;1098;25075;-76
2021/08/20 02:35:25;;;;;;;10.35;9.25;;;;;;;16.53;73.88;100326.68;128062;1098;24217;-76
2021/08/20 02:37:56;;;;;;;11.05;9.63;;;;;;;16.55;73.52;100322.78;128060;1098;24592;-76
2021/08/20 02:40:26;;;;;;;10.00;8.90;;;;;;;16.56;73.32;100320.94;128067;1098;24251;-76
2021/08/20 02:42:55;;;;;;;10.03;9.03;;;;;;;16.52;73.87;100320.53;128255;1098;22425;-76
2021/08/20 02:45:26;;;;;;;9.38;8.63;;;;;;;16.53;73.67;100324.02;128249;1098;22443;-77
2021/08/20 02:48:00;;;;;;;11.23;10.20;;;;;;;16.54;73.47;100323.83;128117;1095;22353;-75
2021/08/20 02:50:31;;;;;;;11.37;10.47;;;;;;;16.56;73.70;100324.45;128526;1095;24192;-76
2021/08/20 02:53:01;;;;;;;11.88;10.88;;;;;;;16.56;73.55;100323.60;128396;1095;22371;-76
2021/08/20 02:55:34;;;;;;;11.80;10.90;;;;;;;16.51;73.40;100326.09;128396;1095;22385;-75
2021/08/20 02:58:05;;;;;;;10.85;9.80;;;;;;;16.47;73.67;100326.50;128390;1095;22347;-76
2021/08/20 03:01:14;;;;;;;11.70;10.70;;;;;;;16.52;73.30;100328.54;115001;1204;544270;-77
2021/08/20 03:03:44;;;;;;;12.80;10.40;;;;;;;16.47;73.40;100329.86;116646;1193;22982;-76
2021/08/20 03:06:20;;;;;;;10.90;9.80;;;;;;;16.47;73.61;100329.57;116597;1194;21890;-77
2021/08/20 03:08:50;;;;;;;13.10;11.10;;;;;;;16.49;73.80;100330.77;116641;1191;21899;-77
2021/08/20 03:11:19;;;;;;;10.10;9.10;;;;;;;16.51;73.86;100332.85;116736;1193;23534;-76
2021/08/20 03:13:49;;;;;;;9.70;8.70;;;;;;;16.54;73.93;100334.73;116586;1194;23563;-77
2021/08/20 03:16:20;;;;;;;10.40;9.40;;;;;;;16.56;73.96;100340.95;116599;1192;23495;-76
2021/08/20 03:18:50;;;;;;;10.20;9.30;;;;;;;16.59;73.96;100340.92;116771;1189;23011;-76
2021/08/20 03:21:20;;;;;;;10.20;9.30;;;;;;;16.62;73.88;100344.08;116811;1189;21909;-76
2021/08/20 03:23:52;;;;;;;11.90;9.10;;;;;;;16.65;73.92;100344.08;116748;1193;21902;-76
2021/08/20 03:26:23;;;;;;;10.10;8.00;;;;;;;16.68;73.88;100342.55;116412;1192;23550;-77
2021/08/20 03:29:01;;;;;;;11.00;10.00;;;;;;;16.72;73.98;100345.05;116421;1194;21902;-76
2021/08/20 03:31:30;;;;;;;10.10;9.20;;;;;;;16.75;73.81;100344.83;116503;1193;22870;-77
2021/08/20 03:34:01;;;;;;;10.90;9.90;;;;;;;16.78;73.65;100341.95;116498;1191;21906;-76
2021/08/20 03:36:30;;;;;;;9.60;8.70;;;;;;;16.80;73.64;100342.35;116403;1191;21939;-76
2021/08/20 03:39:06;;;;;;;10.50;9.50;;;;;;;16.82;73.61;100346.86;116745;1189;21883;-77
2021/08/20 03:41:37;;;;;;;12.30;9.40;;;;;;;16.84;73.53;100346.17;116784;1187;21897;-76
2021/08/20 03:44:11;;;;;;;11.20;10.20;;;;;;;16.86;73.65;100345.25;116755;1188;21876;-76
2021/08/20 03:46:47;;;;;;;10.10;9.20;;;;;;;16.89;73.48;100348.37;117060;1188;22005;-77
2021/08/20 03:49:17;;;;;;;9.80;8.90;;;;;;;16.91;73.35;100346.35;116846;1189;21870;-76
2021/08/20 03:51:46;;;;;;;9.20;8.30;;;;;;;16.93;73.28;100344.54;116816;1188;21903;-77
2021/08/20 03:54:21;;;;;;;9.50;8.70;;;;;;;16.93;73.32;100344.70;116825;1187;22932;-76
2021/08/20 03:56:51;;;;;;;9.10;8.30;;;;;;;16.93;73.30;100343.92;116952;1191;22942;-77
2021/08/20 03:59:25;;;;;;;9.20;8.30;;;;;;;16.97;73.34;100349.86;116815;1191;21934;-77
2021/08/20 04:02:06;;;;;;;9.40;8.50;;;;;;;17.01;73.25;100351.30;116932;1187;21874;-77
2021/08/20 04:04:38;;;;;;;10.70;9.70;;;;;;;17.03;73.23;100348.49;117023;1187;22826;-78
2021/08/20 04:07:20;;;;;;;8.60;7.80;;;;;;;17.06;73.25;100350.13;117204;1186;21907;-78
2021/08/20 04:10:00;;;;;;;9.70;8.70;;;;;;;17.07;73.18;100347.38;117106;1184;23556;-78
2021/08/20 04:12:48;;;;;;;9.50;8.60;;;;;;;17.10;73.19;100347.61;117038;1188;22381;-78
2021/08/20 04:15:31;;;;;;;9.50;7.60;;;;;;;17.11;73.08;100345.76;117206;1185;21896;-78
2021/08/20 04:18:01;;;;;;;8.30;7.50;;;;;;;17.14;73.10;100348.30;117037;1186;21888;-78
2021/08/20 04:20:31;;;;;;;9.70;8.00;;;;;;;17.17;73.21;100348.48;117100;1185;21874;-77
2021/08/20 04:23:01;;;;;;;12.80;9.50;;;;;;;17.21;73.03;100349.58;117025;1189;22803;-77
2021/08/20 04:25:30;;;;;;;8.90;8.00;;;;;;;17.24;72.97;100348.95;117059;1188;22914;-77
2021/08/20 04:28:25;;;;;;;8.80;6.40;;;;;;;17.26;72.81;100353.46;117284;1186;21927;-77
2021/08/20 04:31:13;;;;;;;10.10;7.10;;;;;;;17.30;72.92;100355.45;117076;1185;23688;-78
2021/08/20 04:34:02;;;;;;;10.80;6.60;;;;;;;17.34;72.69;100357.58;117114;1188;21879;-78
2021/08/20 04:36:57;;;;;;;7.80;6.80;;;;;;;17.38;72.67;100361.34;117038;1185;21903;-78
2021/08/20 04:39:41;;;;;;;9.90;7.00;;;;;;;17.39;72.50;100362.33;116793;1188;21894;-77
2021/08/20 04:42:29;;;;;;;7.60;6.80;;;;;;;17.43;72.33;100364.89;116777;1191;23519;-77
2021/08/20 04:45:21;;;;;;;11.30;6.80;;;;;;;17.45;72.18;100364.48;116821;1185;24153;-78
2021/08/20 04:48:09;;;;;;;9.30;7.20;;;;;;;17.46;72.07;100364.10;116812;1190;21881;-77
2021/08/20 04:50:52;;;;;;;;;;;;;;;17.49;72.17;100363.66;116808;1191;21890;-77
2021/08/20 04:53:30;;;;;;;9.50;6.10;;;;;;;17.47;72.27;100367.27;116805;1188;21973;-77
2021/08/20 04:56:18;;;;;;;9.00;7.50;;;;;;;17.50;72.19;100367.23;116823;1188;23550;-78
2021/08/20 04:58:48;;;;;;;6.90;6.20;;;;;;;17.57;72.03;100362.06;116917;1185;22512;-78
2021/08/20 05:01:17;;;;;;;12.20;6.70;;;;;;;17.63;71.96;100365.34;117038;1186;21851;-77
2021/08/20 05:03:48;;;;;;;9.50;6.60;;;;;;;17.70;71.66;100366.16;117098;1188;21894;-76
2021/08/20 05:06:17;;;;;;;8.50;6.30;;;;;;;17.75;71.53;100368.00;117041;1188;21888;-77
2021/08/20 05:08:46;;;;;;;9.30;5.20;;;;;;;17.78;71.41;100367.66;117051;1184;23438;-77
2021/08/20 05:11:15;;;;;;;9.60;5.20;;;;;;;17.83;71.22;100366.84;117278;1188;23444;-77
2021/08/20 05:13:44;;;;;;;8.80;5.00;;;;;;;17.86;71.00;100367.98;117087;1185;22642;-77
2021/08/20 05:16:13;;;;;;;6.90;5.70;;;;;;;17.90;70.80;100366.45;116633;1191;23072;-77
2021/08/20 05:18:46;;;;;;;12.50;6.20;;;;;;;17.93;70.66;100369.71;116666;1193;21894;-76
2021/08/20 05:21:18;;;;;;;8.60;5.30;;;;;;;17.98;70.46;100369.02;116508;1193;23671;-77
2021/08/20 05:23:48;;;;;;;5.10;4.50;;;;;;;18.02;70.37;100375.33;116482;1194;21912;-76
2021/08/20 05:26:18;;;;;;;12.70;6.70;;;;;;;18.06;70.17;100377.69;116529;1191;22806;-77
2021/08/20 05:28:48;;;;;;;6.60;6.00;;;;;;;18.08;70.06;100374.46;116415;1195;23642;-78
2021/08/20 05:31:17;;;;;;;11.20;5.70;;;;;;;18.11;69.80;100375.64;116489;1188;23449;-78
2021/08/20 05:33:46;;;;;;;11.00;5.40;;;;;;;18.15;69.82;100379.98;116514;1192;22696;-78
2021/08/20 05:36:15;;;;;;;8.20;5.60;;;;;;;18.21;69.77;100381.11;116774;1188;23542;-77
2021/08/20 05:38:45;;;;;;;9.40;5.50;;;;;;;18.25;69.46;100378.58;117301;1185;21911;-78
2021/08/20 05:41:14;;;;;;;8.00;5.50;;;;;;;18.26;69.34;100380.91;117094;1185;23444;-78
2021/08/20 05:43:43;;;;;;;8.00;5.50;;;;;;;18.28;69.34;100381.43;117154;1185;22851;-77
2021/08/20 05:46:21;;;;;;;9.90;6.50;;;;;;;18.33;69.27;100380.61;116892;1188;23543;-78
2021/08/20 05:48:50;;;;;;;14.70;5.80;;;;;;;18.38;69.04;100383.70;116984;1189;22876;-77
2021/08/20 05:51:19;;;;;;;10.90;6.10;;;;;;;18.41;68.71;100387.21;116769;1189;23445;-77
2021/08/20 05:53:48;;;;;;;8.30;5.30;;;;;;;18.44;68.86;100384.06;116837;1188;21889;-76
2021/08/20 05:56:17;;;;;;;10.10;5.50;;;;;;;18.49;68.75;100387.77;116791;1191;23575;-77
2021/08/20 05:58:47;;;;;;;9.70;6.40;;;;;;;18.53;68.46;100389.27;116647;1192;22863;-77
2021/08/20 06:01:16;;;;;;;9.10;6.30;;;;;;;18.55;68.39;100393.39;116684;1188;22859;-77
2021/08/20 06:03:46;;;;;;;7.30;5.70;;;;;;;18.60;68.36;100397.73;116743;1189;21888;-77
2021/08/20 06:06:39;;;;;;;8.90;5.90;;;;;;;18.62;68.18;100399.41;116859;1188;23443;-77
2021/08/20 06:09:10;;;;;;;18.10;6.10;;;;;;;18.64;68.00;100400.48;116952;1184;21888;-77
2021/08/20 06:11:39;;;;;;;7.30;5.70;;;;;;;18.66;67.96;100399.23;116988;1186;23620;-76
2021/08/20 06:14:08;;;;;;;7.60;6.80;;;;;;;18.71;67.98;100400.19;116838;1188;23441;-76
2021/08/20 06:16:37;;;;;;;10.90;6.10;;;;;;;18.77;67.91;100396.52;116893;1188;21884;-76
2021/08/20 06:19:06;;;;;;;10.80;6.10;;;;;;;18.82;67.70;100401.33;116977;1188;21880;-75
2021/08/20 06:21:35;;;;;;;12.00;5.70;;;;;;;18.88;67.60;100399.05;116987;1188;22212;-75
2021/08/20 06:24:05;;;;;;;10.10;6.10;;;;;;;18.94;67.55;100397.78;116868;1189;23441;-76
2021/08/20 06:26:34;;;;;;;9.80;6.30;;;;;;;19.01;67.42;100401.26;117098;1188;22037;-75
2021/08/20 06:29:03;;;;;;;10.10;6.30;;;;;;;19.07;67.12;100403.91;117132;1188;22367;-75
2021/08/20 06:31:33;;;;;;;11.30;7.20;;;;;;;19.12;67.06;100404.40;116673;1192;24162;-75
2021/08/20 06:34:08;;;;;;;5.70;5.00;;;;;;;19.15;66.63;100406.42;116871;1189;22027;-75
2021/08/20 06:36:37;;;;;;;7.70;5.90;;;;;;;19.16;66.36;100410.33;116796;1192;21885;-76
2021/08/20 06:39:07;;;;;;;10.00;5.90;;;;;;;19.16;66.25;100411.86;116696;1191;21898;-76
2021/08/20 06:41:36;;;;;;;7.60;5.30;;;;;;;19.22;66.14;100413.55;116601;1193;21884;-75
2021/08/20 06:44:06;;;;;;;8.20;5.00;;;;;;;19.25;66.05;100412.96;116760;1189;21921;-76
2021/08/20 06:50:06;;;;;;;12.80;6.00;;;;;;;19.30;66.08;100412.48;116990;1191;23004;-75
2021/08/20 06:52:37;;;;;;;16.40;9.50;;;;;;;19.34;65.94;100415.31;116537;1190;24152;-76
2021/08/20 06:55:07;;;;;;;;;;;;;;;19.38;65.84;100416.80;116644;1193;22260;-75
2021/08/20 06:57:36;;;;;;;13.10;8.60;;;;;;;19.37;66.07;100415.17;116646;1189;21896;-77
2021/08/20 07:00:06;;;;;;;14.60;7.50;;;;;;;19.43;66.05;100413.36;116714;1192;23476;-76
2021/08/20 07:02:46;;;;;;;10.60;6.50;;;;;;;19.50;65.72;100413.15;116724;1189;22640;-76
2021/08/20 07:05:23;;;;;;;12.50;6.40;;;;;;;19.58;65.72;100414.02;116779;1190;21888;-76
2021/08/20 07:07:52;;;;;;;12.40;5.80;;;;;;;19.66;65.58;100414.95;117036;1185;22053;-76
2021/08/20 07:10:21;;;;;;;11.90;6.40;;;;;;;19.71;65.26;100418.27;116928;1188;22608;-76
2021/08/20 07:12:53;;;;;;;12.90;6.30;;;;;;;19.76;65.08;100417.22;116929;1188;23440;-77
2021/08/20 07:15:23;;;;;;;9.30;6.00;;;;;;;19.85;65.07;100420.52;116913;1188;22708;-76
2021/08/20 07:17:52;;;;;;;11.90;5.60;;;;;;;19.95;64.81;100422.54;116988;1187;21937;-76
2021/08/20 07:20:21;;;;;;;11.20;6.30;;;;;;;20.01;64.56;100419.39;117168;1185;23560;-75
2021/08/20 07:22:50;;;;;;;7.10;5.60;;;;;;;20.07;64.33;100419.80;116974;1185;21908;-76
2021/08/20 07:25:20;;;;;;;7.40;5.70;;;;;;;20.14;64.09;100422.67;117022;1188;21898;-76
2021/08/20 07:27:51;;;;;;;11.70;5.80;;;;;;;20.19;63.65;100420.50;117147;1185;21859;-76
2021/08/20 07:30:20;;;;;;;6.10;5.40;;;;;;;20.23;63.46;100421.40;117052;1186;21875;-76
2021/08/20 07:32:50;;;;;;;8.70;5.50;;;;;;;20.28;63.33;100418.19;117044;1186;21969;-76
2021/08/20 07:35:19;;;;;;;9.60;5.10;;;;;;;20.28;62.94;100419.42;117098;1185;21884;-76
2021/08/20 07:37:48;;;;;;;11.10;5.40;;;;;;;20.28;62.79;100420.83;116740;1189;21895;-76
2021/08/20 07:40:18;;;;;;;12.60;6.20;;;;;;;20.28;62.62;100423.34;116661;1190;22356;-76
2021/08/20 07:42:46;;;;;;;12.50;6.50;;;;;;;20.29;62.79;100422.42;116875;1188;21891;-77
2021/08/20 07:45:16;;;;;;;6.50;4.90;;;;;;;20.37;62.94;100427.20;116759;1188;21900;-76
2021/08/20 07:47:48;;;;;;;6.90;5.00;;;;;;;20.41;62.62;100421.67;116668;1191;21902;-77
2021/08/20 07:50:18;;;;;;;6.30;5.20;;;;;;;20.48;62.74;100423.55;116675;1191;21919;-77
2021/08/20 07:52:47;;;;;;;6.40;4.90;;;;;;;20.59;62.69;100424.35;116818;1188;21891;-77
2021/08/20 07:55:17;;;;;;;7.90;5.50;;;;;;;20.72;62.38;100427.35;116804;1188;21875;-77
2021/08/20 07:57:52;;;;;;;29.80;7.40;;;;;;;20.83;61.86;100425.98;117028;1188;22900;-77
2021/08/20 08:00:27;;;;;;;6.20;5.00;;;;;;;20.93;61.73;100428.10;117074;1186;21884;-79
2021/08/20 08:02:58;;;;;;;10.80;5.70;;;;;;;21.05;61.26;100429.16;117025;1186;21977;-79
2021/08/20 08:05:29;;;;;;;7.00;5.40;;;;;;;21.19;61.00;100431.72;117122;1185;21873;-78
2021/08/20 08:07:59;;;;;;;6.10;5.40;;;;;;;21.38;60.85;100429.58;117115;1184;21870;-82
2021/08/20 08:10:28;;;;;;;6.50;5.00;;;;;;;21.69;61.18;100428.30;117101;1186;21882;-77
2021/08/20 08:12:57;;;;;;;8.50;4.40;;;;;;;22.14;60.99;100435.95;117068;1186;21891;-76
2021/08/20 08:15:27;;;;;;;7.60;5.00;;;;;;;22.59;59.44;100434.84;117111;1185;21882;-76
2021/08/20 08:17:56;;;;;;;6.00;4.40;;;;;;;23.02;58.12;100431.77;117119;1184;23440;-76
2021/08/20 08:20:26;;;;;;;9.10;4.90;;;;;;;23.41;56.93;100432.36;117298;1184;21847;-77
2021/08/20 08:22:54;;;;;;;6.20;4.50;;;;;;;23.67;54.96;100432.96;117103;1185;23604;-77
2021/08/20 08:25:27;;;;;;;9.70;5.20;;;;;;;23.81;54.22;100434.36;117268;1185;21887;-77
2021/08/20 08:27:58;;;;;;;7.00;5.40;;;;;;;24.10;54.56;100439.89;117092;1186;21882;-77
2021/08/20 08:30:34;;;;;;;6.60;4.70;;;;;;;24.42;53.94;100442.69;117096;1184;21902;-75
2021/08/20 08:33:05;;;;;;;7.10;4.10;;;;;;;24.73;53.27;100437.85;117060;1184;22911;-76
2021/08/20 08:35:47;;;;;;;10.10;4.80;;;;;;;25.15;52.63;100431.17;117165;1185;21888;-76
2021/08/20 08:38:16;;;;;;;12.20;5.10;;;;;;;25.49;50.89;100430.89;117149;1186;22658;-78
2021/08/20 08:40:48;;;;;;;6.50;5.40;;;;;;;25.64;49.43;100431.33;117243;1185;21834;-77
2021/08/20 08:43:17;;;;;;;10.70;5.70;;;;;;;25.87;49.56;100430.16;117253;1185;21888;-77
2021/08/20 08:45:46;;;;;;;8.70;4.70;;;;;;;26.14;48.97;100430.11;117076;1186;21889;-78
2021/08/20 08:48:15;;;;;;;6.20;4.70;;;;;;;26.35;48.19;100428.98;117269;1185;22604;-77
2021/08/20 08:50:46;;;;;;;9.50;4.90;;;;;;;26.59;47.58;100424.98;117053;1186;21884;-77
2021/08/20 08:53:16;;;;;;;7.60;5.40;;;;;;;26.77;46.39;100424.70;117335;1184;22896;-77
2021/08/20 08:55:59;;;;;;;6.00;5.10;;;;;;;26.65;45.64;100426.83;117307;1185;21906;-77
2021/08/20 08:58:28;;;;;;;8.50;4.90;;;;;;;26.53;45.62;100427.27;117274;1185;21893;-77
2021/08/20 09:00:58;;;;;;;7.40;6.30;;;;;;;26.40;45.36;100427.97;117272;1186;21886;-77
2021/08/20 09:03:29;;;;;;;5.50;4.50;;;;;;;26.21;45.60;100427.14;117141;1185;23470;-77
2021/08/20 09:05:59;;;;;;;;;;;;;;;26.27;46.49;100423.84;117248;1185;21872;-77
2021/08/20 09:08:29;;;;;;;9.10;5.00;;;;;;;26.42;46.73;100422.21;117133;1184;22847;-76
2021/08/20 09:11:02;;;;;;;6.90;4.10;;;;;;;26.56;46.25;100432.58;117368;1184;21861;-77
2021/08/20 09:13:31;;;;;;;8.90;4.80;;;;;;;26.68;45.64;100431.70;117044;1187;21913;-77
2021/08/20 09:16:14;;;;;;;6.40;3.60;;;;;;;26.65;44.88;100430.84;118221;1184;22985;-78
2021/08/20 09:18:43;;;;;;;5.30;4.50;;;;;;;26.54;44.70;100430.73;117080;1184;21888;-77
2021/08/20 09:21:15;;;;;;;5.60;4.10;;;;;;;26.41;45.01;100427.08;117342;1185;23684;-78
2021/08/20 09:23:44;;;;;;;7.50;4.20;;;;;;;26.42;45.45;100424.59;117064;1188;21930;-77
2021/08/20 09:26:23;;;;;;;5.30;3.80;;;;;;;26.68;45.57;100421.35;117065;1185;21879;-78
2021/08/20 09:28:53;;;;;;;5.60;3.20;;;;;;;27.06;44.88;100420.02;117126;1185;22885;-77
2021/08/20 09:31:23;;;;;;;6.30;4.20;;;;;;;27.36;44.14;100417.89;117080;1180;22274;-77
2021/08/20 09:33:52;;;;;;;5.10;3.90;;;;;;;27.58;42.85;100417.84;117297;1184;22886;-77
2021/08/20 09:36:23;;;;;;;3.90;3.50;;;;;;;27.74;42.72;100420.30;117094;1185;21877;-76
2021/08/20 09:38:55;;;;;;;5.30;3.90;;;;;;;28.09;42.51;100417.66;117081;1185;22831;-77
2021/08/20 09:41:41;;;;;;;7.60;4.20;;;;;;;28.38;41.47;100419.73;117183;1185;23466;-77
2021/08/20 09:44:18;;;;;;;10.10;4.60;;;;;;;28.45;40.53;100422.35;117059;1188;22904;-77
2021/08/20 09:46:52;;;;;;;5.30;4.00;;;;;;;28.28;40.20;100420.29;117096;1182;21875;-77
2021/08/20 09:49:21;;;;;;;5.70;4.20;;;;;;;27.94;40.20;100416.63;117132;1184;22905;-77
2021/08/20 09:51:50;;;;;;;4.70;3.90;;;;;;;27.53;40.43;100410.71;117081;1185;22895;-77
2021/08/20 09:54:26;;;;;;;6.60;3.70;;;;;;;27.22;41.34;100407.64;117144;1185;23465;-76
2021/08/20 09:57:00;;;;;;;4.90;3.50;;;;;;;27.00;41.65;100404.86;117168;1185;21854;-76
2021/08/20 09:59:30;;;;;;;6.20;3.70;;;;;;;26.81;42.29;100403.29;116874;1187;21886;-77
2021/08/20 10:02:00;;;;;;;4.90;3.90;;;;;;;26.66;42.45;100400.77;116829;1187;22396;-77
2021/08/20 10:04:33;;;;;;;4.60;4.10;;;;;;;26.43;42.71;100408.73;116824;1188;23450;-77
2021/08/20 10:07:02;;;;;;;6.10;4.30;;;;;;;26.25;43.22;100405.70;116716;1187;22855;-76
2021/08/20 10:09:31;;;;;;;7.20;5.20;;;;;;;26.07;43.25;100401.24;116742;1187;23455;-76
2021/08/20 10:12:02;;;;;;;5.50;4.20;;;;;;;25.85;43.56;100402.61;116833;1187;21881;-77
2021/08/20 10:14:32;;;;;;;10.00;5.40;;;;;;;25.63;43.92;100402.21;116725;1187;22049;-77
2021/08/20 10:17:01;;;;;;;8.50;5.30;;;;;;;25.41;44.28;100400.73;116760;1187;23434;-77
2021/08/20 10:19:30;;;;;;;8.50;4.70;;;;;;;25.19;44.57;100398.91;117243;1179;22653;-75
2021/08/20 10:22:00;;;;;;;7.40;4.80;;;;;;;24.98;44.90;100396.02;117099;1182;21881;-76
2021/08/20 10:24:29;;;;;;;7.80;4.60;;;;;;;24.81;45.59;100398.58;116987;1184;22595;-75
2021/08/20 10:27:02;;;;;;;9.40;4.80;;;;;;;24.66;46.13;100394.38;117115;1180;22872;-76
2021/08/20 10:29:37;;;;;;;4.30;3.90;;;;;;;24.50;46.37;100396.91;116988;1186;21946;-75
2021/08/20 10:32:08;;;;;;;7.70;4.90;;;;;;;24.34;46.85;100398.42;117046;1185;22903;-75
2021/08/20 10:34:40;;;;;;;6.90;4.90;;;;;;;24.19;47.24;100401.71;117037;1184;21948;-74
2021/08/20 10:37:23;;;;;;;6.20;5.40;;;;;;;24.04;47.62;100405.52;117370;1182;21896;-75
2021/08/20 10:39:56;;;;;;;8.20;5.50;;;;;;;23.90;48.21;100410.13;117661;1187;21945;-76
2021/08/20 10:42:41;;;;;;;6.60;4.60;;;;;;;23.76;48.51;100403.13;117174;1187;21895;-76
2021/08/20 10:45:13;;;;;;;6.50;4.90;;;;;;;23.62;48.97;100402.20;117120;1185;22892;-75
2021/08/20 10:47:42;;;;;;;;;;;;;;;23.53;49.51;100400.69;116976;1187;24207;-76
2021/08/20 10:50:35;;;;;;;6.90;4.80;;;;;;;23.40;50.02;100400.91;117119;1182;21965;-76
2021/08/20 10:53:23;;;;;;;5.50;5.00;;;;;;;23.38;50.49;100400.08;117015;1183;22181;-76
2021/08/20 10:56:22;;;;;;;5.90;5.10;;;;;;;23.37;50.38;100403.20;117131;1185;21897;-75
2021/08/20 10:58:51;;;;;;;7.90;5.10;;;;;;;23.38;50.61;100404.29;117157;1184;21895;-76
2021/08/20 11:01:21;;;;;;;7.60;5.70;;;;;;;23.45;50.72;100403.95;117141;1185;23020;-76
2021/08/20 11:03:53;;;;;;;7.50;5.70;;;;;;;23.52;50.44;100402.14;117068;1184;21910;-75
2021/08/20 11:06:51;;;;;;;6.50;5.60;;;;;;;23.51;50.09;100403.73;117124;1188;21890;-75
2021/08/20 11:09:32;;;;;;;7.20;5.70;;;;;;;23.51;50.37;100405.52;117235;1186;21888;-75
2021/08/20 11:12:02;;;;;;;6.80;4.80;;;;;;;23.53;50.33;100405.65;117144;1181;21888;-75
2021/08/20 11:14:33;;;;;;;7.10;4.80;;;;;;;23.55;50.48;100407.18;117180;1185;23551;-75
2021/08/20 11:17:05;;;;;;;6.00;4.60;;;;;;;23.55;50.53;100403.99;116955;1187;22090;-75
2021/08/20 11:19:52;;;;;;;9.70;5.00;;;;;;;23.52;50.16;100412.53;116885;1188;22907;-77
2021/08/20 11:22:24;;;;;;;7.20;6.60;;;;;;;23.44;50.14;100417.14;116700;1189;21887;-75
2021/08/20 11:25:11;;;;;;;9.00;7.20;;;;;;;23.35;50.43;100418.58;116735;1187;22610;-76
2021/08/20 11:27:53;;;;;;;6.70;5.60;;;;;;;23.24;51.10;100417.91;116762;1189;21917;-74
2021/08/20 11:30:22;;;;;;;7.10;6.40;;;;;;;23.15;51.68;100416.23;116710;1190;21903;-74
2021/08/20 11:33:17;;;;;;;9.00;6.60;;;;;;;23.11;52.25;100418.86;116651;1189;22112;-74
2021/08/20 11:36:00;;;;;;;8.30;7.50;;;;;;;23.08;52.74;100417.26;116880;1187;23544;-74
2021/08/20 11:38:49;;;;;;;9.20;7.80;;;;;;;23.11;53.13;100414.06;117030;1187;23478;-74
2021/08/20 11:41:36;;;;;;;8.60;7.80;;;;;;;23.15;53.27;100411.01;117251;1184;22170;-75